createdAt,value
2022-10-17T00:01:07.663Z,14.51
2022-10-17T00:03:37.153Z,14.52
2022-10-17T00:06:12.715Z,14.53
2022-10-17T00:08:42.929Z,14.59
2022-10-17T00:11:23.420Z,14.75
2022-10-17T00:13:54.799Z,14.65
2022-10-17T00:16:28.289Z,14.64
2022-10-17T00:18:56.761Z,14.73
2022-10-17T00:21:26.234Z,14.72
2022-10-17T00:23:55.870Z,14.69
2022-10-17T00:26:23.749Z,14.72
2022-10-17T00:28:53.390Z,14.70
2022-10-17T00:31:23.477Z,14.67
2022-10-17T00:33:52.642Z,14.70
2022-10-17T00:36:24.491Z,14.73
2022-10-17T00:38:57.040Z,14.70
2022-10-17T00:41:27.769Z,14.64
2022-10-17T00:44:08.130Z,14.60
2022-10-17T00:46:38.827Z,14.54
2022-10-17T00:49:12.430Z,14.52
2022-10-17T00:51:47.261Z,14.56
2022-10-17T00:54:19.304Z,14.61
2022-10-17T00:56:48.656Z,14.64
2022-10-17T00:59:19.655Z,14.65
2022-10-17T01:02:13.992Z,14.65
2022-10-17T01:04:46.333Z,14.78
2022-10-17T01:07:14.222Z,14.72
2022-10-17T01:09:44.976Z,14.64
2022-10-17T01:12:33.234Z,14.56
2022-10-17T01:15:26.146Z,14.46
2022-10-17T01:18:33.697Z,14.39
2022-10-17T01:21:33.369Z,14.49
2022-10-17T01:24:29.819Z,14.64
2022-10-17T01:27:23.543Z,14.72
2022-10-17T01:30:26.820Z,14.59
2022-10-17T01:33:22.891Z,14.64
2022-10-17T01:36:08.813Z,14.75
2022-10-17T01:38:49.238Z,14.76
2022-10-17T01:41:37.807Z,14.73
2022-10-17T01:44:32.148Z,14.73
2022-10-17T01:47:07.638Z,14.74
2022-10-17T01:49:40.000Z,14.79
2022-10-17T01:52:20.835Z,14.84
2022-10-17T01:54:58.212Z,14.87
2022-10-17T01:57:38.118Z,14.85
2022-10-17T02:00:11.356Z,14.67
2022-10-17T02:02:44.404Z,14.57
2022-10-17T02:05:12.249Z,14.50
2022-10-17T02:07:41.938Z,14.49
2022-10-17T02:10:21.747Z,14.48
2022-10-17T02:13:10.753Z,14.48
2022-10-17T02:16:12.622Z,14.52
2022-10-17T02:18:57.294Z,14.58
2022-10-17T02:22:16.181Z,14.58
2022-10-17T02:25:23.658Z,14.61
2022-10-17T02:28:07.657Z,14.73
2022-10-17T02:30:48.604Z,14.76
2022-10-17T02:33:49.479Z,14.77
2022-10-17T02:36:28.252Z,14.69
2022-10-17T02:38:58.711Z,14.62
2022-10-17T02:44:02.660Z,14.74
2022-10-17T02:46:32.524Z,14.72
2022-10-17T02:49:16.713Z,14.65
2022-10-17T02:51:58.775Z,14.61
2022-10-17T02:55:31.951Z,14.62
2022-10-17T02:58:06.624Z,14.65
2022-10-17T03:00:41.676Z,14.62
2022-10-17T03:03:27.223Z,14.61
2022-10-17T03:05:55.830Z,14.62
2022-10-17T03:08:25.278Z,14.55
2022-10-17T03:10:53.031Z,14.46
2022-10-17T03:13:22.410Z,14.39
2022-10-17T03:15:50.870Z,14.29
2022-10-17T03:18:18.544Z,14.26
2022-10-17T03:20:46.957Z,14.22
2022-10-17T03:23:15.634Z,14.17
2022-10-17T03:25:43.286Z,14.12
2022-10-17T03:28:12.600Z,14.09
2022-10-17T03:30:40.470Z,14.04
2022-10-17T03:33:08.334Z,14.00
2022-10-17T03:35:40.197Z,13.94
2022-10-17T03:38:08.319Z,13.85
2022-10-17T03:40:36.003Z,13.81
2022-10-17T03:43:04.976Z,13.78
2022-10-17T03:45:33.317Z,13.78
2022-10-17T03:48:01.158Z,13.75
2022-10-17T03:50:28.873Z,13.75
2022-10-17T03:52:56.810Z,13.75
2022-10-17T03:55:24.478Z,13.72
2022-10-17T03:57:52.255Z,13.70
2022-10-17T04:00:20.883Z,13.66
2022-10-17T04:02:54.249Z,13.65
2022-10-17T04:05:21.924Z,13.59
2022-10-17T04:07:49.697Z,13.56
2022-10-17T04:10:18.388Z,13.56
2022-10-17T04:12:46.142Z,13.55
2022-10-17T04:15:14.734Z,13.54
2022-10-17T04:17:42.442Z,13.55
2022-10-17T04:20:10.650Z,13.53
2022-10-17T04:22:38.646Z,13.50
2022-10-17T04:25:06.824Z,13.46
2022-10-17T04:27:37.066Z,13.45
2022-10-17T04:30:05.630Z,13.44
2022-10-17T04:32:38.629Z,13.41
2022-10-17T04:35:13.826Z,13.39
2022-10-17T04:37:45.079Z,13.39
2022-10-17T04:40:18.315Z,13.40
2022-10-17T04:42:46.801Z,13.38
2022-10-17T04:45:17.046Z,13.37
2022-10-17T04:47:45.857Z,13.33
2022-10-17T04:50:13.562Z,13.34
2022-10-17T04:52:41.488Z,13.33
2022-10-17T04:55:09.925Z,13.33
2022-10-17T04:57:37.618Z,13.33
2022-10-17T05:00:14.764Z,13.32
2022-10-17T05:02:53.466Z,13.30
2022-10-17T05:05:21.270Z,13.24
2022-10-17T05:07:51.072Z,13.26
2022-10-17T05:10:20.811Z,13.21
2022-10-17T05:12:50.665Z,13.20
2022-10-17T05:15:19.355Z,13.17
2022-10-17T05:17:47.371Z,13.11
2022-10-17T05:20:15.194Z,13.11
2022-10-17T05:22:42.817Z,13.15
2022-10-17T05:25:11.836Z,13.17
2022-10-17T05:27:39.652Z,13.18
2022-10-17T05:30:08.858Z,13.16
2022-10-17T05:32:37.166Z,13.12
2022-10-17T05:35:05.971Z,13.08
2022-10-17T05:37:34.231Z,13.10
2022-10-17T05:40:04.150Z,13.12
2022-10-17T05:42:32.810Z,13.14
2022-10-17T05:45:00.985Z,13.18
2022-10-17T05:47:29.114Z,13.20
2022-10-17T05:49:57.162Z,13.23
2022-10-17T05:52:30.118Z,13.25
2022-10-17T05:55:24.386Z,13.26
2022-10-17T05:57:53.917Z,13.28
2022-10-17T06:00:22.639Z,13.30
2022-10-17T06:02:56.446Z,13.25
2022-10-17T06:05:25.361Z,13.27
2022-10-17T06:07:57.005Z,13.33
2022-10-17T06:10:28.243Z,13.37
2022-10-17T06:12:57.578Z,13.41
2022-10-17T06:15:25.436Z,13.44
2022-10-17T06:18:02.131Z,13.48
2022-10-17T06:20:30.251Z,13.51
2022-10-17T06:22:58.074Z,13.55
2022-10-17T06:25:46.678Z,13.60
2022-10-17T06:28:14.648Z,13.64
2022-10-17T06:30:42.461Z,13.67
2022-10-17T06:33:10.218Z,13.69
2022-10-17T06:35:37.994Z,13.68
2022-10-17T06:38:06.342Z,13.71
2022-10-17T06:40:34.503Z,13.86
2022-10-17T06:43:02.538Z,14.07
2022-10-17T06:45:49.108Z,14.12
2022-10-17T06:48:22.000Z,14.06
2022-10-17T06:51:18.879Z,14.11
2022-10-17T06:53:54.469Z,14.13
2022-10-17T06:56:30.014Z,14.22
2022-10-17T06:59:10.781Z,14.23
2022-10-17T07:01:43.265Z,14.29
2022-10-17T07:04:14.791Z,14.34
2022-10-17T07:06:42.508Z,14.41
2022-10-17T07:09:22.985Z,14.49
2022-10-17T07:11:51.363Z,14.56
2022-10-17T07:14:19.798Z,14.61
2022-10-17T07:16:48.032Z,14.61
2022-10-17T07:19:26.975Z,14.67
2022-10-17T07:21:54.994Z,14.72
2022-10-17T07:24:23.199Z,14.77
2022-10-17T07:27:04.064Z,14.81
2022-10-17T07:29:31.938Z,14.85
2022-10-17T07:32:12.266Z,14.87
2022-10-17T07:34:40.136Z,14.92
2022-10-17T07:37:10.595Z,14.97
2022-10-17T07:39:39.997Z,15.05
2022-10-17T07:42:08.100Z,15.10
2022-10-17T07:44:36.493Z,15.21
2022-10-17T07:47:04.663Z,15.28
2022-10-17T07:49:32.353Z,15.32
2022-10-17T07:51:59.998Z,15.42
2022-10-17T07:54:27.802Z,15.49
2022-10-17T07:56:55.675Z,15.53
2022-10-17T07:59:24.275Z,15.56
2022-10-17T08:01:55.508Z,15.66
2022-10-17T08:04:23.795Z,15.78
2022-10-17T08:06:56.382Z,15.84
2022-10-17T08:09:28.457Z,15.88
2022-10-17T08:11:56.110Z,16.01
2022-10-17T08:14:23.828Z,16.08
2022-10-17T08:16:54.518Z,16.22
2022-10-17T08:19:22.195Z,16.28
2022-10-17T08:21:50.339Z,16.36
2022-10-17T08:24:18.350Z,16.44
2022-10-17T08:26:48.277Z,16.51
2022-10-17T08:29:17.322Z,16.61
2022-10-17T08:31:47.842Z,16.70
2022-10-17T08:34:16.893Z,16.84
2022-10-17T08:36:44.584Z,16.97
2022-10-17T08:39:12.326Z,17.06
2022-10-17T08:42:14.186Z,17.11
2022-10-17T08:45:16.965Z,17.20
2022-10-17T08:47:50.978Z,17.32
2022-10-17T08:50:42.538Z,17.48
2022-10-17T08:53:29.419Z,17.66
2022-10-17T08:55:59.771Z,17.81
2022-10-17T08:58:35.290Z,17.93
2022-10-17T09:01:32.338Z,18.06
2022-10-17T09:04:18.671Z,18.20
2022-10-17T09:07:22.393Z,18.36
2022-10-17T09:10:02.919Z,18.48
2022-10-17T09:13:10.760Z,18.57
2022-10-17T09:15:57.967Z,18.62
2022-10-17T09:18:44.398Z,18.59
2022-10-17T09:21:26.652Z,18.59
2022-10-17T09:24:09.560Z,18.70
2022-10-17T09:26:46.639Z,18.83
2022-10-17T09:29:23.699Z,18.98
2022-10-17T09:32:02.495Z,19.13
2022-10-17T09:34:32.661Z,19.27
2022-10-17T09:37:02.277Z,19.41
2022-10-17T09:39:33.177Z,19.56
2022-10-17T09:42:03.127Z,19.69
2022-10-17T09:44:42.577Z,19.82
2022-10-17T09:47:34.657Z,19.93
2022-10-17T09:50:02.584Z,20.20
2022-10-17T09:52:36.323Z,20.33
2022-10-17T09:55:21.523Z,20.37
2022-10-17T09:58:03.801Z,20.45
2022-10-17T10:00:42.378Z,20.56
2022-10-17T10:03:12.807Z,20.64
2022-10-17T10:05:42.262Z,20.66
2022-10-17T10:08:18.869Z,20.69
2022-10-17T10:10:46.669Z,20.76
2022-10-17T10:13:14.247Z,20.86
2022-10-17T10:15:48.197Z,20.95
2022-10-17T10:18:25.030Z,21.00
2022-10-17T10:21:07.024Z,21.03
2022-10-17T10:23:40.163Z,21.14
2022-10-17T10:26:27.623Z,21.20
2022-10-17T10:29:02.718Z,21.28
2022-10-17T10:31:38.564Z,21.34
2022-10-17T10:34:22.518Z,21.50
2022-10-17T10:37:04.548Z,21.55
2022-10-17T10:39:43.085Z,21.66
2022-10-17T10:42:25.596Z,21.70
2022-10-17T10:45:01.181Z,21.77
2022-10-17T10:47:32.427Z,21.86
2022-10-17T10:50:45.575Z,21.87
2022-10-17T10:53:38.825Z,22.03
2022-10-17T10:56:12.066Z,22.04
2022-10-17T10:59:04.600Z,22.11
2022-10-17T11:01:58.194Z,22.14
2022-10-17T11:04:44.580Z,22.28
2022-10-17T11:08:20.361Z,22.40
2022-10-17T11:11:00.323Z,22.58
2022-10-17T11:13:40.822Z,22.64
2022-10-17T11:16:20.170Z,22.76
2022-10-17T11:19:03.197Z,22.84
2022-10-17T11:21:47.253Z,22.94
2022-10-17T11:24:27.988Z,23.13
2022-10-17T11:27:07.187Z,23.19
2022-10-17T11:29:39.517Z,23.27
2022-10-17T11:32:43.815Z,23.27
2022-10-17T11:35:38.907Z,23.46
2022-10-17T11:38:21.198Z,23.57
2022-10-17T11:40:54.018Z,23.66
2022-10-17T11:43:42.998Z,23.74
2022-10-17T11:46:28.222Z,23.89
2022-10-17T11:49:20.639Z,23.90
2022-10-17T11:52:01.678Z,23.88
2022-10-17T11:54:46.052Z,23.89
2022-10-17T11:57:50.374Z,23.87
2022-10-17T12:01:24.558Z,23.97
2022-10-17T12:04:20.159Z,24.14
2022-10-17T12:07:11.489Z,24.22
2022-10-17T12:09:57.227Z,24.22
2022-10-17T12:12:31.188Z,24.27
2022-10-17T12:15:11.645Z,24.37
2022-10-17T12:17:44.474Z,24.50
2022-10-17T12:20:23.357Z,24.59
2022-10-17T12:23:05.988Z,24.64
2022-10-17T12:28:24.846Z,24.83
2022-10-17T12:31:02.123Z,24.81
2022-10-17T12:33:50.847Z,24.73
2022-10-17T12:36:18.556Z,24.54
2022-10-17T12:39:13.513Z,24.59
2022-10-17T12:41:42.240Z,24.74
2022-10-17T12:44:12.835Z,24.78
2022-10-17T12:47:18.584Z,24.81
2022-10-17T12:49:54.333Z,24.84
2022-10-17T12:52:35.126Z,25.07
2022-10-17T12:55:18.059Z,25.20
2022-10-17T12:58:03.136Z,25.37
2022-10-17T13:01:18.907Z,25.55
2022-10-17T13:03:47.523Z,25.60
2022-10-17T13:06:29.769Z,25.45
2022-10-17T13:09:17.010Z,25.18
2022-10-17T13:11:45.041Z,24.90
2022-10-17T13:14:16.767Z,24.82
2022-10-17T13:16:58.409Z,24.62
2022-10-17T13:19:40.040Z,24.51
2022-10-17T13:22:25.337Z,24.44
2022-10-17T13:25:07.349Z,24.37
2022-10-17T13:27:36.402Z,24.61
2022-10-17T13:30:29.339Z,25.08
2022-10-17T13:33:01.911Z,25.31
2022-10-17T13:38:32.444Z,25.41
2022-10-17T13:41:30.181Z,25.25
2022-10-17T13:43:51.319Z,25.09
2022-10-17T13:46:39.338Z,25.13
2022-10-17T13:49:32.349Z,25.43
2022-10-17T13:52:04.601Z,25.39
2022-10-17T13:54:41.537Z,24.95
2022-10-17T13:57:29.406Z,24.71
2022-10-17T14:00:19.962Z,24.46
2022-10-17T14:02:48.449Z,24.26
2022-10-17T14:05:23.334Z,24.18
2022-10-17T14:08:11.498Z,24.06
2022-10-17T14:10:43.385Z,23.92
2022-10-17T14:13:34.021Z,23.89
2022-10-17T14:16:04.116Z,23.88
2022-10-17T14:18:36.866Z,23.80
2022-10-17T14:24:35.046Z,23.65
2022-10-17T14:27:03.052Z,23.54
2022-10-17T14:29:50.141Z,23.54
2022-10-17T14:32:19.642Z,23.50
2022-10-17T14:34:57.489Z,23.41
2022-10-17T14:37:47.720Z,23.31
2022-10-17T14:40:20.441Z,23.21
2022-10-17T14:42:48.338Z,23.17
2022-10-17T14:45:27.050Z,23.06
2022-10-17T14:48:01.907Z,22.97
2022-10-17T14:50:32.803Z,22.87
2022-10-17T14:53:05.731Z,22.84
2022-10-17T14:55:36.416Z,22.79
2022-10-17T14:58:27.950Z,22.77
2022-10-17T15:00:57.257Z,22.67
2022-10-17T15:03:25.762Z,22.58
2022-10-17T15:05:55.250Z,22.52
2022-10-17T15:08:24.399Z,22.48
2022-10-17T15:10:52.662Z,22.43
2022-10-17T15:13:29.475Z,22.40
2022-10-17T15:15:58.126Z,22.35
2022-10-17T15:18:25.954Z,22.26
2022-10-17T15:21:04.544Z,22.19
2022-10-17T15:23:42.349Z,22.09
2022-10-17T15:26:20.206Z,22.00
2022-10-17T15:28:49.685Z,21.88
2022-10-17T15:31:21.402Z,21.81
2022-10-17T15:33:50.631Z,21.69
2022-10-17T15:36:27.994Z,21.57
2022-10-17T15:39:00.665Z,21.48
2022-10-17T15:41:31.022Z,21.37
2022-10-17T15:44:00.122Z,21.25
2022-10-17T15:46:32.583Z,21.16
2022-10-17T15:49:11.752Z,21.06
2022-10-17T15:51:40.061Z,20.99
2022-10-17T15:54:07.891Z,20.95
2022-10-17T15:56:39.750Z,20.90
2022-10-17T15:59:17.818Z,20.82
2022-10-17T16:01:45.870Z,20.79
2022-10-17T16:04:15.454Z,20.72
2022-10-17T16:06:43.455Z,20.61
2022-10-17T16:09:11.342Z,20.53
2022-10-17T16:11:42.668Z,20.45
2022-10-17T16:14:18.162Z,20.34
2022-10-17T16:16:46.538Z,20.29
2022-10-17T16:19:14.375Z,20.22
2022-10-17T16:21:42.098Z,20.17
2022-10-17T16:24:12.136Z,20.12
2022-10-17T16:26:40.247Z,20.15
2022-10-17T16:29:09.952Z,20.10
2022-10-17T16:31:43.472Z,20.04
2022-10-17T16:34:14.197Z,19.97
2022-10-17T16:36:42.648Z,19.93
2022-10-17T16:39:10.830Z,19.89
2022-10-17T16:41:39.434Z,19.81
2022-10-17T16:44:14.411Z,19.78
2022-10-17T16:46:42.188Z,19.73
2022-10-17T16:49:10.052Z,19.69
2022-10-17T16:51:37.699Z,19.61
2022-10-17T16:54:05.421Z,19.53
2022-10-17T16:56:33.534Z,19.45
2022-10-17T16:59:02.175Z,19.40
2022-10-17T17:01:29.933Z,19.36
2022-10-17T17:03:58.225Z,19.38
2022-10-17T17:06:29.319Z,19.35
2022-10-17T17:08:57.611Z,19.27
2022-10-17T17:11:28.139Z,19.20
2022-10-17T17:13:57.905Z,19.12
2022-10-17T17:16:27.427Z,19.02
2022-10-17T17:19:06.862Z,18.98
2022-10-17T17:21:35.277Z,18.88
2022-10-17T17:24:04.646Z,18.88
2022-10-17T17:26:36.288Z,18.82
2022-10-17T17:29:04.134Z,18.80
2022-10-17T17:31:34.925Z,18.75
2022-10-17T17:34:03.310Z,18.71
2022-10-17T17:36:35.438Z,18.66
2022-10-17T17:39:08.623Z,18.61
2022-10-17T17:41:37.279Z,18.63
2022-10-17T17:44:05.447Z,18.63
2022-10-17T17:46:33.358Z,18.57
2022-10-17T17:49:01.102Z,18.47
2022-10-17T17:51:29.447Z,18.46
2022-10-17T17:53:57.792Z,18.44
2022-10-17T17:56:28.654Z,18.40
2022-10-17T17:59:01.148Z,18.38
2022-10-17T18:01:37.924Z,18.34
2022-10-17T18:04:08.765Z,18.29
2022-10-17T18:06:38.260Z,18.26
2022-10-17T18:09:07.799Z,18.22
2022-10-17T18:11:37.378Z,18.20
2022-10-17T18:14:11.071Z,18.16
2022-10-17T18:16:39.148Z,18.12
2022-10-17T18:19:10.974Z,18.08
2022-10-17T18:21:38.699Z,18.03
2022-10-17T18:24:07.826Z,17.97
2022-10-17T18:26:35.975Z,17.94
2022-10-17T18:29:04.106Z,17.91
2022-10-17T18:31:37.755Z,17.87
2022-10-17T18:34:05.753Z,17.79
2022-10-17T18:36:35.039Z,17.73
2022-10-17T18:39:03.815Z,17.71
2022-10-17T18:41:32.969Z,17.68
2022-10-17T18:44:00.922Z,17.64
2022-10-17T18:46:40.969Z,17.59
2022-10-17T18:49:12.564Z,17.62
2022-10-17T18:51:41.915Z,17.60
2022-10-17T18:54:21.536Z,17.57
2022-10-17T18:56:52.103Z,17.54
2022-10-17T18:59:21.581Z,17.49
2022-10-17T19:01:49.788Z,17.43
2022-10-17T19:04:17.942Z,17.43
2022-10-17T19:06:45.741Z,17.44
2022-10-17T19:09:14.478Z,17.39
2022-10-17T19:11:43.107Z,17.44
2022-10-17T19:14:13.449Z,17.49
2022-10-17T19:16:46.329Z,17.45
2022-10-17T19:19:17.997Z,17.39
2022-10-17T19:21:46.019Z,17.36
2022-10-17T19:24:21.638Z,17.39
2022-10-17T19:26:53.339Z,17.36
2022-10-17T19:29:25.615Z,17.32
2022-10-17T19:34:27.809Z,17.31
2022-10-17T19:36:55.931Z,17.33
2022-10-17T19:39:25.053Z,17.33
2022-10-17T19:41:52.961Z,17.30
2022-10-17T19:44:20.707Z,17.24
2022-10-17T19:46:49.198Z,17.20
2022-10-17T19:49:18.130Z,17.15
2022-10-17T19:51:46.435Z,17.14
2022-10-17T19:54:18.144Z,17.17
2022-10-17T19:56:46.490Z,17.13
2022-10-17T19:59:16.103Z,17.10
2022-10-17T20:01:45.122Z,17.12
2022-10-17T20:04:13.742Z,17.13
2022-10-17T20:06:41.973Z,17.13
2022-10-17T20:09:15.630Z,17.12
2022-10-17T20:11:45.081Z,17.09
2022-10-17T20:14:12.793Z,17.04
2022-10-17T20:16:40.515Z,16.97
2022-10-17T20:19:12.030Z,16.99
2022-10-17T20:21:39.865Z,16.99
2022-10-17T20:24:11.280Z,16.92
2022-10-17T20:26:40.105Z,16.90
2022-10-17T20:29:19.000Z,16.88
2022-10-17T20:31:48.263Z,16.80
2022-10-17T20:34:18.210Z,16.73
2022-10-17T20:36:46.506Z,16.69
2022-10-17T20:39:17.045Z,16.70
2022-10-17T20:41:45.654Z,16.68
2022-10-17T20:44:13.536Z,16.73
2022-10-17T20:46:48.708Z,16.70
2022-10-17T20:49:28.261Z,16.66
2022-10-17T20:51:55.961Z,16.60
2022-10-17T20:54:24.488Z,16.57
2022-10-17T20:56:52.253Z,16.55
2022-10-17T20:59:20.922Z,16.55
2022-10-17T21:01:48.734Z,16.52
2022-10-17T21:04:43.948Z,16.48
2022-10-17T21:07:04.619Z,16.48
2022-10-17T21:09:32.512Z,16.40
2022-10-17T21:14:36.287Z,16.34
2022-10-17T21:17:05.465Z,16.31
2022-10-17T21:19:33.651Z,16.30
2022-10-17T21:22:01.613Z,16.26
2022-10-17T21:24:30.386Z,16.24
2022-10-17T21:26:58.844Z,16.23
2022-10-17T21:29:26.742Z,16.19
2022-10-17T21:31:54.392Z,16.18
2022-10-17T21:34:26.204Z,16.17
2022-10-17T21:36:53.905Z,16.10
2022-10-17T21:39:24.137Z,16.04
2022-10-17T21:41:53.381Z,16.03
2022-10-17T21:44:25.486Z,16.05
2022-10-17T21:46:55.151Z,16.06
2022-10-17T21:49:24.904Z,16.00
2022-10-17T21:51:53.372Z,15.94
2022-10-17T21:54:25.764Z,16.04
2022-10-17T21:56:53.393Z,16.13
2022-10-17T21:59:21.181Z,16.11
2022-10-17T22:01:49.015Z,16.07
2022-10-17T22:04:19.266Z,16.03
2022-10-17T22:06:51.048Z,16.05
2022-10-17T22:09:24.959Z,16.09
2022-10-17T22:11:56.403Z,16.12
2022-10-17T22:14:27.386Z,16.10
2022-10-17T22:16:55.390Z,16.11
2022-10-17T22:19:26.764Z,16.10
2022-10-17T22:21:55.311Z,16.08
2022-10-17T22:24:23.840Z,16.10
2022-10-17T22:26:52.332Z,16.15
2022-10-17T22:29:20.729Z,16.13
2022-10-17T22:31:48.679Z,16.15
2022-10-17T22:34:17.913Z,16.19
2022-10-17T22:36:47.598Z,16.15
2022-10-17T22:39:15.870Z,16.09
2022-10-17T22:41:43.920Z,16.11
2022-10-17T22:44:11.712Z,15.99
2022-10-17T22:46:39.401Z,15.95
2022-10-17T22:49:07.112Z,15.98
2022-10-17T22:51:34.819Z,15.95
2022-10-17T22:54:02.503Z,15.93
2022-10-17T22:56:30.225Z,15.94
2022-10-17T22:58:57.974Z,15.95
2022-10-17T23:01:26.113Z,15.92
2022-10-17T23:03:53.976Z,15.90
2022-10-17T23:06:22.133Z,15.86
2022-10-17T23:08:50.247Z,15.80
2022-10-17T23:11:18.458Z,15.79
2022-10-17T23:13:46.229Z,15.76
2022-10-17T23:16:13.860Z,15.70
2022-10-17T23:18:41.629Z,15.69
2022-10-17T23:21:09.327Z,15.68
2022-10-17T23:23:37.454Z,15.65
2022-10-17T23:26:13.339Z,15.65
2022-10-17T23:28:42.388Z,15.64
2022-10-17T23:31:18.771Z,15.57
2022-10-17T23:33:49.147Z,15.56
2022-10-17T23:36:19.977Z,15.53
2022-10-17T23:38:48.719Z,15.46
2022-10-17T23:41:16.939Z,15.38
2022-10-17T23:43:44.812Z,15.36
2022-10-17T23:46:13.170Z,15.32
2022-10-17T23:48:40.996Z,15.27
2022-10-17T23:51:10.521Z,15.21
2022-10-17T23:53:39.313Z,15.25
2022-10-17T23:56:09.984Z,15.23
2022-10-17T23:58:39.155Z,15.22
